Time;durP1;ratioP1;P1;durP2;ratioP2;P2;SDS_P1;SDS_P2;PMS_P1;PMS_P2;Temp;Humidity;BMP_temperature;BMP_pressure;BME280_temperature;BME280_humidity;BME280_pressure;Samples;Min_cycle;Max_cycle;Signal;HPM_P1;HPM_P2
2023/06/29 00:00:22;;;;;;;30.05;21.75;;;;;;;;;;5060994;28;20032;-76
2023/06/29 00:02:48;;;;;;;28.73;21.52;;;;;;;;;;5068942;28;20032;-76
2023/06/29 00:05:15;;;;;;;30.73;23.75;;;;;;;;;;5065157;28;20044;-77
2023/06/29 00:07:42;;;;;;;27.38;21.88;;;;;;;;;;5069928;28;20028;-77
2023/06/29 00:10:09;;;;;;;28.35;23.67;;;;;;;;;;5068549;28;20329;-76
2023/06/29 00:12:35;;;;;;;31.90;23.08;;;;;;;;;;5069911;28;20039;-77
2023/06/29 00:15:02;;;;;;;30.10;22.23;;;;;;;;;;5069437;28;20038;-76
2023/06/29 00:17:28;;;;;;;28.42;22.52;;;;;;;;;;5069379;28;20089;-76
2023/06/29 00:19:54;;;;;;;29.92;24.48;;;;;;;;;;5068619;28;20020;-76
2023/06/29 00:22:20;;;;;;;32.55;24.10;;;;;;;;;;5069130;28;20028;-76
2023/06/29 00:24:54;;;;;;;32.25;25.33;;;;;;;;;;5069003;28;20053;-76
2023/06/29 00:27:20;;;;;;;30.80;24.73;;;;;;;;;;5068852;28;20046;-76
2023/06/29 00:29:46;;;;;;;31.88;26.15;;;;;;;;;;5069070;28;20029;-77
2023/06/29 00:32:13;;;;;;;30.00;24.35;;;;;;;;;;5068647;28;20029;-77
2023/06/29 00:34:39;;;;;;;34.92;26.55;;;;;;;;;;5069137;28;20125;-77
2023/06/29 00:37:06;;;;;;;35.53;27.30;;;;;;;;;;5069220;28;20482;-77
2023/06/29 00:39:33;;;;;;;34.17;26.45;;;;;;;;;;5068945;28;20024;-76
2023/06/29 00:41:59;;;;;;;34.40;27.40;;;;;;;;;;5061249;28;20086;-76
2023/06/29 00:44:25;;;;;;;37.03;28.08;;;;;;;;;;5068906;28;20040;-77
2023/06/29 00:46:52;;;;;;;34.95;28.10;;;;;;;;;;5054764;28;20498;-76
2023/06/29 00:49:19;;;;;;;38.67;29.10;;;;;;;;;;5069093;28;20475;-77
2023/06/29 00:51:49;;;;;;;34.42;26.83;;;;;;;;;;5068237;28;20367;-76
2023/06/29 00:54:16;;;;;;;31.35;26.40;;;;;;;;;;5051050;28;20033;-77
2023/06/29 00:56:42;;;;;;;39.50;28.88;;;;;;;;;;5068766;28;20183;-76
2023/06/29 00:59:08;;;;;;;34.67;27.48;;;;;;;;;;5068844;28;20070;-77
2023/06/29 01:01:34;;;;;;;37.63;30.38;;;;;;;;;;5068308;28;20499;-77
2023/06/29 01:04:00;;;;;;;40.50;30.45;;;;;;;;;;5067974;28;20032;-76
2023/06/29 01:06:32;;;;;;;39.88;29.88;;;;;;;;;;5068179;28;20059;-76
2023/06/29 01:09:05;;;;;;;38.95;29.90;;;;;;;;;;5068714;28;20027;-77
2023/06/29 01:11:35;;;;;;;39.92;29.77;;;;;;;;;;5059324;28;20086;-77
2023/06/29 01:14:02;;;;;;;;;;;;;;;;;;5059309;28;20035;-77
2023/06/29 01:16:32;;;;;;;34.35;27.75;;;;;;;;;;5068303;28;19915;-77
2023/06/29 01:18:58;;;;;;;37.40;29.95;;;;;;;;;;5068313;28;20036;-76
2023/06/29 01:21:24;;;;;;;37.80;30.40;;;;;;;;;;5068570;28;20028;-78
2023/06/29 01:23:54;;;;;;;39.67;31.13;;;;;;;;;;5068655;28;20136;-75
2023/06/29 01:26:20;;;;;;;37.88;30.73;;;;;;;;;;5055251;28;20060;-77
2023/06/29 01:28:48;;;;;;;36.08;29.33;;;;;;;;;;5068375;28;20033;-77
2023/06/29 01:31:14;;;;;;;38.50;31.15;;;;;;;;;;5068311;28;20028;-78
2023/06/29 01:33:41;;;;;;;42.35;31.45;;;;;;;;;;5068519;28;20040;-76
2023/06/29 01:36:11;;;;;;;41.95;33.05;;;;;;;;;;5068379;28;20024;-76
2023/06/29 01:38:40;;;;;;;42.33;31.38;;;;;;;;;;5068257;28;20037;-77
2023/06/29 01:41:07;;;;;;;41.75;33.15;;;;;;;;;;5068102;28;20497;-77
2023/06/29 01:43:33;;;;;;;40.60;32.20;;;;;;;;;;5064299;28;20150;-77
2023/06/29 01:45:59;;;;;;;42.22;32.50;;;;;;;;;;5053852;28;20029;-76
2023/06/29 01:48:29;;;;;;;44.88;33.90;;;;;;;;;;5058234;28;20093;-76
2023/06/29 01:50:55;;;;;;;42.70;33.75;;;;;;;;;;5071600;28;20032;-76
2023/06/29 01:53:21;;;;;;;43.40;33.58;;;;;;;;;;5057793;28;20097;-77
2023/06/29 01:55:48;;;;;;;41.05;33.08;;;;;;;;;;5072510;28;20032;-77
2023/06/29 01:58:14;;;;;;;40.10;31.83;;;;;;;;;;5072029;28;20215;-77
2023/06/29 02:00:40;;;;;;;42.45;32.90;;;;;;;;;;5056827;28;20037;-76
2023/06/29 02:03:06;;;;;;;40.58;31.75;;;;;;;;;;5071330;28;20039;-76
2023/06/29 02:05:32;;;;;;;43.13;34.15;;;;;;;;;;5054135;28;20469;-76
2023/06/29 02:07:58;;;;;;;44.08;35.15;;;;;;;;;;5072052;28;20024;-76
2023/06/29 02:10:24;;;;;;;46.75;35.45;;;;;;;;;;5063551;28;20497;-77
2023/06/29 02:12:50;;;;;;;43.70;35.72;;;;;;;;;;5069113;28;20063;-76
2023/06/29 02:15:16;;;;;;;42.70;33.97;;;;;;;;;;5071955;28;20039;-77
2023/06/29 02:17:42;;;;;;;44.90;35.10;;;;;;;;;;5071015;28;20584;-76
2023/06/29 02:20:11;;;;;;;44.08;36.60;;;;;;;;;;5070814;28;20028;-77
2023/06/29 02:22:37;;;;;;;44.85;35.35;;;;;;;;;;5071503;28;20067;-76
2023/06/29 02:25:04;;;;;;;49.63;38.08;;;;;;;;;;5070973;28;20059;-77
2023/06/29 02:27:30;;;;;;;46.47;38.28;;;;;;;;;;5071697;28;20020;-76
2023/06/29 02:29:56;;;;;;;45.50;33.60;;;;;;;;;;5067236;28;20024;-76
2023/06/29 02:32:22;;;;;;;44.05;35.78;;;;;;;;;;5071013;28;20754;-77
2023/06/29 02:34:48;;;;;;;51.78;37.00;;;;;;;;;;5071134;28;20043;-77
2023/06/29 02:37:14;;;;;;;45.00;36.33;;;;;;;;;;5071623;28;20021;-77
2023/06/29 02:39:40;;;;;;;48.30;38.10;;;;;;;;;;5063228;28;20118;-78
2023/06/29 02:42:06;;;;;;;45.92;35.97;;;;;;;;;;5070974;28;20032;-77
2023/06/29 02:44:32;;;;;;;45.42;36.80;;;;;;;;;;5070674;28;20036;-76
2023/06/29 02:46:58;;;;;;;50.33;39.28;;;;;;;;;;5070580;28;20036;-77
2023/06/29 02:49:24;;;;;;;46.63;37.75;;;;;;;;;;5065466;28;20060;-77
2023/06/29 02:51:50;;;;;;;49.13;37.65;;;;;;;;;;5070573;28;20097;-76
2023/06/29 02:54:16;;;;;;;48.55;37.08;;;;;;;;;;5071229;28;20094;-76
2023/06/29 02:56:42;;;;;;;46.05;38.50;;;;;;;;;;5069894;28;20036;-77
2023/06/29 02:59:08;;;;;;;48.50;38.75;;;;;;;;;;5052816;28;20394;-77
2023/06/29 03:01:34;;;;;;;47.33;38.40;;;;;;;;;;5056273;28;20060;-76
2023/06/29 03:04:00;;;;;;;47.25;37.83;;;;;;;;;;5042700;28;20036;-77
2023/06/29 03:06:26;;;;;;;48.20;39.35;;;;;;;;;;5068504;28;20542;-76
2023/06/29 03:08:52;;;;;;;45.33;37.55;;;;;;;;;;5068510;28;20822;-76
2023/06/29 03:11:18;;;;;;;49.53;40.13;;;;;;;;;;5070418;28;20421;-76
2023/06/29 03:13:45;;;;;;;51.65;39.45;;;;;;;;;;5069392;28;20032;-77
2023/06/29 03:16:12;;;;;;;45.45;37.90;;;;;;;;;;5070489;28;20047;-76
2023/06/29 03:18:38;;;;;;;47.75;38.80;;;;;;;;;;5070452;28;20028;-77
2023/06/29 03:21:04;;;;;;;48.22;39.67;;;;;;;;;;5070194;28;20047;-77
2023/06/29 03:23:30;;;;;;;49.22;37.78;;;;;;;;;;5070143;28;20059;-76
2023/06/29 03:25:57;;;;;;;48.97;39.85;;;;;;;;;;5070134;28;20358;-75
2023/06/29 03:28:23;;;;;;;48.97;39.08;;;;;;;;;;5068983;28;20115;-77
2023/06/29 03:30:49;;;;;;;49.65;36.63;;;;;;;;;;5070374;28;20021;-76
2023/06/29 03:33:15;;;;;;;50.05;37.40;;;;;;;;;;5052844;28;20039;-77
2023/06/29 03:35:41;;;;;;;49.22;36.00;;;;;;;;;;5069561;28;20457;-76
2023/06/29 03:38:08;;;;;;;50.53;37.70;;;;;;;;;;5070001;28;20055;-78
2023/06/29 03:40:34;;;;;;;49.90;37.00;;;;;;;;;;5070143;28;20025;-77
2023/06/29 03:43:00;;;;;;;44.95;34.63;;;;;;;;;;5062871;28;20034;-78
2023/06/29 03:45:26;;;;;;;42.47;33.72;;;;;;;;;;5066526;28;20382;-75
2023/06/29 03:47:52;;;;;;;43.92;35.17;;;;;;;;;;5067610;28;20032;-77
2023/06/29 03:50:18;;;;;;;47.92;35.47;;;;;;;;;;5069197;28;20036;-78
2023/06/29 03:52:44;;;;;;;45.03;36.65;;;;;;;;;;5070654;28;20033;-77
2023/06/29 03:55:11;;;;;;;44.25;35.97;;;;;;;;;;5051271;28;20020;-76
2023/06/29 03:57:37;;;;;;;48.00;37.78;;;;;;;;;;5057690;28;20392;-78
2023/06/29 04:00:03;;;;;;;44.42;34.38;;;;;;;;;;5069605;28;20029;-77
2023/06/29 04:02:29;;;;;;;46.72;35.28;;;;;;;;;;5069769;28;20090;-76
2023/06/29 04:04:55;;;;;;;46.25;33.60;;;;;;;;;;5068996;28;20040;-77
2023/06/29 04:07:21;;;;;;;44.35;34.08;;;;;;;;;;5068927;28;20024;-77
2023/06/29 04:09:47;;;;;;;42.05;34.25;;;;;;;;;;5069832;28;20048;-78
2023/06/29 04:12:13;;;;;;;39.55;31.48;;;;;;;;;;5069189;28;20055;-77
2023/06/29 04:14:40;;;;;;;43.78;35.08;;;;;;;;;;5069404;28;20494;-76
2023/06/29 04:17:06;;;;;;;42.47;32.55;;;;;;;;;;5069279;28;20024;-76
2023/06/29 04:19:32;;;;;;;41.40;31.60;;;;;;;;;;5069517;28;21344;-77
2023/06/29 04:21:58;;;;;;;45.83;35.30;;;;;;;;;;5057260;28;20028;-77
2023/06/29 04:24:24;;;;;;;40.38;33.60;;;;;;;;;;5068841;28;20059;-76
2023/06/29 04:26:51;;;;;;;42.38;34.42;;;;;;;;;;5058778;28;20082;-77
2023/06/29 04:29:17;;;;;;;43.53;34.45;;;;;;;;;;5051592;28;20086;-78
2023/06/29 04:31:43;;;;;;;43.85;36.05;;;;;;;;;;5068784;28;20028;-77
2023/06/29 04:34:08;;;;;;;47.45;33.22;;;;;;;;;;5069148;28;20078;-78
2023/06/29 04:36:35;;;;;;;36.90;30.65;;;;;;;;;;5069636;28;20036;-77
2023/06/29 04:39:01;;;;;;;42.22;33.40;;;;;;;;;;5068884;28;20025;-77
2023/06/29 04:41:32;;;;;;;40.65;32.60;;;;;;;;;;5069239;28;20487;-78
2023/06/29 04:44:03;;;;;;;42.38;32.17;;;;;;;;;;5068761;28;20490;-77
2023/06/29 04:46:29;;;;;;;;;;;;;;;;;;5069342;28;20052;-77
2023/06/29 04:48:55;;;;;;;41.40;31.23;;;;;;;;;;5069229;28;19958;-77
2023/06/29 04:51:21;;;;;;;40.40;31.45;;;;;;;;;;5068439;28;20495;-77
2023/06/29 04:53:47;;;;;;;39.25;32.72;;;;;;;;;;5068777;28;20024;-78
2023/06/29 04:56:13;;;;;;;37.05;30.70;;;;;;;;;;5068916;28;20035;-78
2023/06/29 04:58:39;;;;;;;38.88;32.17;;;;;;;;;;5069475;28;20024;-77
2023/06/29 05:01:06;;;;;;;42.15;31.65;;;;;;;;;;5068749;28;20036;-78
2023/06/29 05:03:34;;;;;;;41.72;33.53;;;;;;;;;;5065760;28;20078;-79
2023/06/29 05:06:00;;;;;;;39.10;30.17;;;;;;;;;;5068729;28;20033;-77
2023/06/29 05:08:26;;;;;;;41.47;32.10;;;;;;;;;;5068683;28;20391;-77
2023/06/29 05:10:52;;;;;;;39.72;32.33;;;;;;;;;;5068460;28;20099;-77
2023/06/29 05:13:18;;;;;;;40.20;31.17;;;;;;;;;;5068434;28;20036;-77
2023/06/29 05:15:47;;;;;;;41.78;33.05;;;;;;;;;;5068518;28;20635;-77
2023/06/29 05:18:13;;;;;;;41.85;32.67;;;;;;;;;;5068549;28;20028;-77
2023/06/29 05:20:39;;;;;;;43.10;31.48;;;;;;;;;;5049037;28;20028;-76
2023/06/29 05:23:06;;;;;;;41.90;32.47;;;;;;;;;;5049658;28;20056;-76
2023/06/29 05:25:32;;;;;;;44.28;34.40;;;;;;;;;;5068452;28;20498;-77
2023/06/29 05:27:58;;;;;;;44.38;34.67;;;;;;;;;;5049620;28;20495;-77
2023/06/29 05:30:24;;;;;;;46.28;35.55;;;;;;;;;;5068146;28;20028;-77
2023/06/29 05:32:50;;;;;;;46.35;36.30;;;;;;;;;;5068364;28;20466;-76
2023/06/29 05:35:16;;;;;;;43.03;33.45;;;;;;;;;;5041014;28;20028;-80
2023/06/29 05:37:42;;;;;;;48.17;37.25;;;;;;;;;;5069877;28;20025;-81
2023/06/29 05:40:08;;;;;;;45.10;36.25;;;;;;;;;;5054381;28;20167;-81
2023/06/29 05:42:34;;;;;;;42.50;36.38;;;;;;;;;;5066986;28;20104;-80
2023/06/29 05:45:00;;;;;;;48.67;35.38;;;;;;;;;;5065839;28;20105;-78
2023/06/29 05:47:26;;;;;;;40.22;30.80;;;;;;;;;;5051746;28;20077;-77
2023/06/29 05:49:52;;;;;;;46.05;32.97;;;;;;;;;;5065113;28;20066;-80
2023/06/29 05:52:18;;;;;;;47.28;35.63;;;;;;;;;;5067656;28;20145;-78
2023/06/29 05:54:44;;;;;;;40.53;31.80;;;;;;;;;;5066760;28;20040;-80
2023/06/29 05:57:10;;;;;;;40.08;31.95;;;;;;;;;;5065422;28;20522;-80
2023/06/29 05:59:36;;;;;;;45.00;32.85;;;;;;;;;;5067107;28;20158;-80
2023/06/29 06:02:02;;;;;;;39.60;28.67;;;;;;;;;;5060829;28;20372;-79
2023/06/29 06:04:28;;;;;;;36.47;27.42;;;;;;;;;;5066919;28;20037;-79
2023/06/29 06:07:01;;;;;;;41.70;31.05;;;;;;;;;;5054389;28;20032;-85
2023/06/29 06:09:27;;;;;;;38.45;31.73;;;;;;;;;;5064190;28;20368;-82
2023/06/29 06:11:54;;;;;;;40.20;28.67;;;;;;;;;;5042110;28;20051;-79
2023/06/29 06:14:20;;;;;;;41.95;34.22;;;;;;;;;;5064585;28;20233;-80
2023/06/29 06:16:46;;;;;;;42.03;31.33;;;;;;;;;;5069262;28;20107;-80
2023/06/29 06:19:13;;;;;;;37.00;28.08;;;;;;;;;;5069436;28;20025;-79
2023/06/29 06:21:39;;;;;;;45.28;34.90;;;;;;;;;;5068547;28;20035;-80
2023/06/29 06:24:05;;;;;;;34.78;25.98;;;;;;;;;;5066791;28;20395;-81
2023/06/29 06:26:31;;;;;;;39.47;31.60;;;;;;;;;;5061222;28;20067;-78
2023/06/29 06:28:57;;;;;;;37.42;26.88;;;;;;;;;;5066867;28;20486;-79
2023/06/29 06:31:23;;;;;;;47.00;33.17;;;;;;;;;;5070317;28;20021;-79
2023/06/29 06:33:56;;;;;;;39.65;31.50;;;;;;;;;;5072544;28;20063;-78
2023/06/29 06:36:22;;;;;;;38.00;29.98;;;;;;;;;;5072005;28;20086;-78
2023/06/29 06:38:49;;;;;;;40.22;30.15;;;;;;;;;;5073938;28;20025;-80
2023/06/29 06:41:15;;;;;;;37.38;27.55;;;;;;;;;;5071671;28;20604;-79
2023/06/29 06:43:41;;;;;;;47.10;34.28;;;;;;;;;;5070875;28;20092;-77
2023/06/29 06:46:07;;;;;;;34.08;25.27;;;;;;;;;;5073044;28;20523;-80
2023/06/29 06:48:33;;;;;;;43.75;31.40;;;;;;;;;;5072239;28;20522;-79
2023/06/29 06:50:59;;;;;;;39.15;30.13;;;;;;;;;;5071059;28;20547;-79
2023/06/29 06:53:25;;;;;;;35.90;26.83;;;;;;;;;;5071571;28;20036;-79
2023/06/29 06:55:52;;;;;;;44.60;32.67;;;;;;;;;;5070714;28;20028;-79
2023/06/29 06:58:18;;;;;;;44.72;30.52;;;;;;;;;;5071197;28;20059;-80
2023/06/29 07:00:44;;;;;;;34.85;26.25;;;;;;;;;;5071064;28;20405;-81
2023/06/29 07:03:10;;;;;;;33.78;24.88;;;;;;;;;;5071344;28;20029;-79
2023/06/29 07:05:36;;;;;;;35.45;26.40;;;;;;;;;;5072150;28;20029;-79
2023/06/29 07:08:02;;;;;;;35.30;24.98;;;;;;;;;;5071214;28;20028;-79
2023/06/29 07:10:28;;;;;;;26.83;18.42;;;;;;;;;;5072846;28;20543;-79
2023/06/29 07:12:54;;;;;;;20.73;14.25;;;;;;;;;;5053706;28;20041;-78
2023/06/29 07:15:20;;;;;;;27.48;20.42;;;;;;;;;;5071799;28;20364;-79
2023/06/29 07:17:47;;;;;;;25.02;17.35;;;;;;;;;;5070710;28;20107;-79
2023/06/29 07:20:14;;;;;;;20.25;15.15;;;;;;;;;;5072343;28;20020;-79
2023/06/29 07:22:40;;;;;;;20.13;14.85;;;;;;;;;;5061516;28;20025;-79
2023/06/29 07:25:07;;;;;;;25.20;18.13;;;;;;;;;;5071184;28;20078;-77
2023/06/29 07:27:34;;;;;;;27.02;17.27;;;;;;;;;;5056213;28;20144;-80
2023/06/29 07:30:00;;;;;;;27.40;16.92;;;;;;;;;;5074311;28;20099;-80
2023/06/29 07:32:26;;;;;;;22.50;15.88;;;;;;;;;;5073006;28;20037;-77
2023/06/29 07:34:53;;;;;;;26.38;18.52;;;;;;;;;;5071163;28;20052;-80
2023/06/29 07:37:21;;;;;;;18.35;13.88;;;;;;;;;;5073571;28;20036;-79
2023/06/29 07:39:48;;;;;;;22.40;16.20;;;;;;;;;;5072288;28;20739;-79
2023/06/29 07:42:14;;;;;;;26.60;18.05;;;;;;;;;;5072850;28;20090;-78
2023/06/29 07:44:40;;;;;;;21.35;15.70;;;;;;;;;;5073010;28;20282;-79
2023/06/29 07:47:06;;;;;;;35.97;25.83;;;;;;;;;;5071074;28;20367;-81
2023/06/29 07:49:32;;;;;;;31.50;20.20;;;;;;;;;;5070944;28;20114;-79
2023/06/29 07:51:58;;;;;;;36.92;24.33;;;;;;;;;;5065986;28;20048;-80
2023/06/29 07:54:24;;;;;;;23.63;17.08;;;;;;;;;;5071588;28;20544;-80
2023/06/29 07:56:51;;;;;;;36.50;25.63;;;;;;;;;;5072193;28;20475;-82
2023/06/29 07:59:17;;;;;;;32.28;25.42;;;;;;;;;;5074902;28;20024;-78
2023/06/29 08:01:48;;;;;;;23.70;17.10;;;;;;;;;;5074027;28;20028;-81
2023/06/29 08:04:15;;;;;;;34.60;21.25;;;;;;;;;;5072816;28;20116;-79
2023/06/29 08:06:43;;;;;;;29.80;20.17;;;;;;;;;;5071487;28;20036;-79
2023/06/29 08:09:10;;;;;;;29.65;22.38;;;;;;;;;;5072283;28;20070;-79
2023/06/29 08:11:36;;;;;;;22.00;14.98;;;;;;;;;;5072082;28;20074;-79
2023/06/29 08:14:02;;;;;;;25.63;19.00;;;;;;;;;;5070669;28;20473;-78
2023/06/29 08:16:28;;;;;;;24.45;16.55;;;;;;;;;;5070698;28;20036;-77
2023/06/29 08:18:54;;;;;;;23.75;16.42;;;;;;;;;;5053094;28;20028;-79
2023/06/29 08:21:20;;;;;;;28.08;21.60;;;;;;;;;;5069489;28;20038;-78
2023/06/29 08:23:48;;;;;;;24.02;16.55;;;;;;;;;;5072028;28;20127;-81
2023/06/29 08:26:14;;;;;;;21.15;14.88;;;;;;;;;;5070354;28;20052;-80
2023/06/29 08:28:40;;;;;;;30.00;22.25;;;;;;;;;;5069104;28;20417;-79
2023/06/29 08:31:06;;;;;;;27.83;20.48;;;;;;;;;;5069376;28;20031;-81
2023/06/29 08:33:35;;;;;;;25.23;17.90;;;;;;;;;;5069282;28;20770;-79
2023/06/29 08:36:02;;;;;;;29.85;22.17;;;;;;;;;;5058060;28;20036;-77
2023/06/29 08:38:28;;;;;;;25.33;17.90;;;;;;;;;;5070155;28;20031;-81
2023/06/29 08:40:56;;;;;;;28.88;20.23;;;;;;;;;;5069236;28;20107;-81
2023/06/29 08:43:24;;;;;;;23.80;17.75;;;;;;;;;;5069718;28;20059;-78
2023/06/29 08:45:50;;;;;;;26.48;18.08;;;;;;;;;;5070621;28;20017;-79
2023/06/29 08:48:17;;;;;;;23.77;18.42;;;;;;;;;;5044611;28;20387;-79
2023/06/29 08:50:46;;;;;;;27.38;20.75;;;;;;;;;;5061671;28;20029;-78
2023/06/29 08:53:13;;;;;;;27.20;20.15;;;;;;;;;;5068918;28;20043;-81
2023/06/29 08:55:39;;;;;;;28.63;22.00;;;;;;;;;;5069179;28;20040;-79
2023/06/29 08:58:06;;;;;;;24.08;17.65;;;;;;;;;;5069423;28;20111;-79
2023/06/29 09:00:33;;;;;;;22.95;17.40;;;;;;;;;;5058654;28;20220;-77
2023/06/29 09:02:59;;;;;;;22.45;15.93;;;;;;;;;;5070701;28;20362;-78
2023/06/29 09:05:26;;;;;;;29.77;20.95;;;;;;;;;;5069207;28;20025;-78
2023/06/29 09:07:53;;;;;;;27.83;20.73;;;;;;;;;;5069437;28;20047;-80
2023/06/29 09:10:19;;;;;;;20.83;16.73;;;;;;;;;;5071119;28;20174;-80
2023/06/29 09:12:49;;;;;;;27.38;20.05;;;;;;;;;;5069191;28;20024;-78
2023/06/29 09:15:16;;;;;;;24.35;16.77;;;;;;;;;;5054172;28;20056;-80
2023/06/29 09:17:45;;;;;;;29.58;21.17;;;;;;;;;;5069309;28;20062;-78
2023/06/29 09:20:15;;;;;;;28.08;19.33;;;;;;;;;;5073738;28;20054;-79
2023/06/29 09:22:41;;;;;;;24.88;20.33;;;;;;;;;;5069763;28;20498;-77
2023/06/29 09:25:09;;;;;;;24.00;16.33;;;;;;;;;;5069187;28;20440;-79
2023/06/29 09:27:35;;;;;;;26.10;20.48;;;;;;;;;;5070159;28;20032;-77
2023/06/29 09:30:03;;;;;;;24.95;18.75;;;;;;;;;;5068869;28;20028;-79
2023/06/29 09:32:29;;;;;;;24.73;19.25;;;;;;;;;;5069133;28;20024;-77
2023/06/29 09:34:56;;;;;;;21.23;16.30;;;;;;;;;;5070025;28;20029;-80
2023/06/29 09:37:22;;;;;;;23.25;16.73;;;;;;;;;;5069364;28;20021;-79
2023/06/29 09:39:57;;;;;;;25.88;20.75;;;;;;;;;;5069176;28;20024;-79
2023/06/29 09:42:24;;;;;;;20.42;16.02;;;;;;;;;;5068538;28;20088;-80
2023/06/29 09:44:50;;;;;;;22.67;16.65;;;;;;;;;;5068388;28;20033;-81
2023/06/29 09:47:18;;;;;;;21.02;15.27;;;;;;;;;;5069053;28;20528;-79
2023/06/29 09:49:48;;;;;;;27.80;18.08;;;;;;;;;;5050835;28;20028;-78
2023/06/29 09:52:14;;;;;;;;;;;;;;;;;;5076487;28;20085;-81
2023/06/29 09:54:40;;;;;;;25.63;20.98;;;;;;;;;;5056963;28;20006;-81
2023/06/29 09:57:07;;;;;;;23.48;16.73;;;;;;;;;;5068623;28;20028;-79
2023/06/29 09:59:37;;;;;;;26.05;19.00;;;;;;;;;;5068555;28;20398;-80
2023/06/29 10:02:04;;;;;;;28.48;20.98;;;;;;;;;;5067531;28;20471;-76
2023/06/29 10:04:30;;;;;;;24.92;19.38;;;;;;;;;;5069501;28;20040;-80
2023/06/29 10:07:06;;;;;;;22.33;17.33;;;;;;;;;;5072200;28;20502;-78
2023/06/29 10:09:35;;;;;;;22.42;16.38;;;;;;;;;;5072246;28;20039;-78
2023/06/29 10:12:01;;;;;;;26.45;21.38;;;;;;;;;;5071593;28;20103;-77
2023/06/29 10:14:27;;;;;;;25.20;19.02;;;;;;;;;;5073325;28;20510;-80
2023/06/29 10:16:53;;;;;;;24.80;20.98;;;;;;;;;;5075033;28;20093;-80
2023/06/29 10:19:24;;;;;;;30.25;22.33;;;;;;;;;;5073427;28;20098;-78
2023/06/29 10:21:58;;;;;;;21.90;16.30;;;;;;;;;;5073039;28;20025;-78
2023/06/29 10:24:36;;;;;;;27.30;21.58;;;;;;;;;;5067828;28;20055;-78
2023/06/29 10:27:02;;;;;;;23.15;17.20;;;;;;;;;;5068810;28;20023;-77
2023/06/29 10:29:28;;;;;;;25.55;17.95;;;;;;;;;;5065509;28;20021;-78
2023/06/29 10:31:58;;;;;;;27.60;22.23;;;;;;;;;;5063252;28;20025;-79
2023/06/29 10:34:27;;;;;;;23.52;16.20;;;;;;;;;;5063931;28;20486;-78
2023/06/29 10:36:58;;;;;;;27.27;21.70;;;;;;;;;;5065900;28;20033;-76
2023/06/29 10:39:40;;;;;;;29.00;20.88;;;;;;;;;;5046760;28;20452;-77
2023/06/29 10:42:28;;;;;;;28.83;21.45;;;;;;;;;;5064988;28;20111;-79
2023/06/29 10:44:54;;;;;;;28.00;20.63;;;;;;;;;;5052313;28;20405;-77
2023/06/29 10:47:37;;;;;;;23.17;16.58;;;;;;;;;;5071789;28;20448;-77
2023/06/29 10:50:09;;;;;;;25.02;19.35;;;;;;;;;;5057510;28;20474;-80
2023/06/29 10:52:35;;;;;;;24.80;17.52;;;;;;;;;;5071432;28;20058;-79
2023/06/29 10:55:18;;;;;;;23.38;18.38;;;;;;;;;;5071094;28;20031;-79
2023/06/29 10:57:49;;;;;;;23.05;18.60;;;;;;;;;;5071694;28;20055;-78
2023/06/29 11:00:16;;;;;;;21.80;16.08;;;;;;;;;;5052863;28;20530;-78
2023/06/29 11:02:42;;;;;;;23.35;17.55;;;;;;;;;;5071461;28;20459;-79
2023/06/29 11:05:14;;;;;;;22.70;17.55;;;;;;;;;;5070264;28;20028;-81
2023/06/29 11:07:41;;;;;;;23.98;17.73;;;;;;;;;;5071215;28;20085;-77
2023/06/29 11:10:07;;;;;;;23.98;19.17;;;;;;;;;;5071420;28;20025;-78
2023/06/29 11:12:33;;;;;;;28.48;20.58;;;;;;;;;;5053406;28;20677;-79
2023/06/29 11:15:03;;;;;;;21.58;17.10;;;;;;;;;;5070547;28;20036;-79
2023/06/29 11:17:29;;;;;;;25.23;17.58;;;;;;;;;;5052497;28;20541;-78
2023/06/29 11:19:55;;;;;;;20.73;15.13;;;;;;;;;;5071220;28;20028;-78
2023/06/29 11:22:21;;;;;;;28.38;18.13;;;;;;;;;;5070951;28;20039;-79
2023/06/29 11:24:48;;;;;;;23.88;18.70;;;;;;;;;;5070652;28;20049;-77
2023/06/29 11:27:17;;;;;;;21.75;16.88;;;;;;;;;;5070274;28;20417;-77
2023/06/29 11:29:43;;;;;;;22.83;16.73;;;;;;;;;;5062230;28;20029;-76
2023/06/29 11:32:10;;;;;;;23.85;18.45;;;;;;;;;;5070359;28;20070;-78
2023/06/29 11:34:36;;;;;;;23.08;17.98;;;;;;;;;;5070469;28;20547;-78
2023/06/29 11:37:02;;;;;;;22.55;17.17;;;;;;;;;;5070178;28;20025;-77
2023/06/29 11:39:31;;;;;;;22.08;17.70;;;;;;;;;;5070471;28;20025;-78
2023/06/29 11:41:57;;;;;;;27.60;20.45;;;;;;;;;;5056549;28;20465;-77
2023/06/29 11:44:23;;;;;;;23.65;16.98;;;;;;;;;;5052774;28;20050;-78
2023/06/29 11:46:49;;;;;;;21.88;17.23;;;;;;;;;;5056768;28;20051;-78
2023/06/29 11:49:19;;;;;;;28.67;20.52;;;;;;;;;;5069954;28;20052;-79
2023/06/29 11:51:45;;;;;;;28.30;21.40;;;;;;;;;;5057511;28;20397;-80
2023/06/29 11:54:12;;;;;;;29.98;22.63;;;;;;;;;;5069728;28;20094;-78
2023/06/29 11:56:39;;;;;;;23.35;17.80;;;;;;;;;;5069984;28;20388;-79
2023/06/29 11:59:10;;;;;;;25.63;20.08;;;;;;;;;;5057934;28;20029;-78
2023/06/29 12:01:37;;;;;;;28.92;21.52;;;;;;;;;;5051768;28;20438;-79
2023/06/29 12:04:09;;;;;;;24.55;18.95;;;;;;;;;;5069649;28;20029;-78
2023/06/29 12:06:36;;;;;;;27.42;22.50;;;;;;;;;;5052458;28;20044;-79
2023/06/29 12:09:11;;;;;;;27.13;20.27;;;;;;;;;;5069497;28;20043;-78
2023/06/29 12:11:39;;;;;;;28.38;19.20;;;;;;;;;;5069803;28;20024;-78
2023/06/29 12:14:06;;;;;;;33.10;24.92;;;;;;;;;;5069470;28;20514;-78
2023/06/29 12:16:31;;;;;;;27.88;21.13;;;;;;;;;;5070392;28;20021;-77
2023/06/29 12:18:59;;;;;;;30.13;23.67;;;;;;;;;;5069414;28;20512;-77
2023/06/29 12:21:25;;;;;;;29.35;21.45;;;;;;;;;;5069185;28;20094;-80
2023/06/29 12:23:51;;;;;;;25.10;19.92;;;;;;;;;;5052584;28;20056;-77
2023/06/29 12:26:19;;;;;;;32.10;23.58;;;;;;;;;;5069789;28;20089;-77
2023/06/29 12:28:44;;;;;;;27.77;20.65;;;;;;;;;;5069106;28;20469;-79
2023/06/29 12:31:12;;;;;;;26.02;19.40;;;;;;;;;;5069657;28;20108;-77
2023/06/29 12:33:38;;;;;;;26.60;19.55;;;;;;;;;;5070024;28;20089;-79
2023/06/29 12:36:04;;;;;;;29.63;24.52;;;;;;;;;;5068832;28;20029;-77
2023/06/29 12:38:30;;;;;;;27.60;21.75;;;;;;;;;;5068987;28;20029;-77
2023/06/29 12:41:00;;;;;;;29.65;21.65;;;;;;;;;;5069500;28;20035;-77
2023/06/29 12:43:26;;;;;;;;;;;;;;;;;;5069321;28;20036;-79
2023/06/29 12:45:52;;;;;;;30.80;22.90;;;;;;;;;;5068596;28;20271;-79
2023/06/29 12:48:19;;;;;;;33.97;26.65;;;;;;;;;;5069226;28;20024;-79
2023/06/29 12:50:45;;;;;;;30.63;23.58;;;;;;;;;;5051595;28;20028;-78
2023/06/29 12:53:12;;;;;;;28.25;21.67;;;;;;;;;;5068940;28;20039;-79
2023/06/29 12:55:40;;;;;;;29.00;23.65;;;;;;;;;;5073406;28;20108;-76
2023/06/29 12:58:06;;;;;;;35.92;24.90;;;;;;;;;;5069226;28;20500;-78
2023/06/29 13:00:38;;;;;;;33.22;25.17;;;;;;;;;;5070722;28;20470;-78
2023/06/29 13:03:07;;;;;;;28.70;23.13;;;;;;;;;;5053295;28;20088;-78
2023/06/29 13:05:36;;;;;;;27.55;20.52;;;;;;;;;;5070682;28;20132;-78
2023/06/29 13:08:02;;;;;;;35.83;28.08;;;;;;;;;;5070625;28;20025;-79
2023/06/29 13:10:28;;;;;;;31.52;23.55;;;;;;;;;;5080868;28;20043;-80
2023/06/29 13:12:59;;;;;;;31.13;23.48;;;;;;;;;;5061241;28;20077;-77
2023/06/29 13:15:25;;;;;;;36.92;28.55;;;;;;;;;;5052454;28;20118;-79
2023/06/29 13:17:57;;;;;;;36.55;28.83;;;;;;;;;;5071065;28;20073;-78
2023/06/29 13:20:23;;;;;;;30.38;24.73;;;;;;;;;;5052251;28;20028;-78
2023/06/29 13:22:52;;;;;;;30.00;23.05;;;;;;;;;;5070788;28;20129;-79
2023/06/29 13:25:18;;;;;;;27.08;19.00;;;;;;;;;;5071185;28;20037;-79
2023/06/29 13:27:44;;;;;;;23.40;18.63;;;;;;;;;;5072186;28;20087;-78
2023/06/29 13:30:10;;;;;;;31.27;22.77;;;;;;;;;;5054153;28;20107;-79
2023/06/29 13:32:39;;;;;;;36.20;28.38;;;;;;;;;;5072234;28;20028;-78
2023/06/29 13:35:06;;;;;;;32.80;27.05;;;;;;;;;;5072001;28;20020;-78
2023/06/29 13:37:32;;;;;;;34.08;28.70;;;;;;;;;;5075096;28;20100;-76
2023/06/29 13:40:01;;;;;;;38.35;30.08;;;;;;;;;;5082534;28;20050;-79
2023/06/29 13:42:27;;;;;;;35.80;26.60;;;;;;;;;;5079428;28;20024;-77
2023/06/29 13:44:58;;;;;;;31.67;23.00;;;;;;;;;;5081686;28;20083;-77
2023/06/29 13:47:24;;;;;;;27.73;21.48;;;;;;;;;;5074850;28;20017;-79
2023/06/29 13:49:51;;;;;;;28.13;22.38;;;;;;;;;;5074769;28;20024;-79
2023/06/29 13:52:17;;;;;;;34.30;25.08;;;;;;;;;;5056644;28;20044;-79
2023/06/29 13:54:47;;;;;;;29.25;21.92;;;;;;;;;;5074648;28;20028;-77
2023/06/29 13:57:13;;;;;;;28.30;19.65;;;;;;;;;;5042595;28;20745;-79
2023/06/29 13:59:39;;;;;;;31.35;24.13;;;;;;;;;;5074797;28;20115;-79
2023/06/29 14:02:05;;;;;;;28.50;20.58;;;;;;;;;;5073874;28;20108;-79
2023/06/29 14:04:42;;;;;;;24.95;18.95;;;;;;;;;;5074532;28;20068;-79
2023/06/29 14:07:08;;;;;;;32.95;24.33;;;;;;;;;;5056222;28;20032;-78
2023/06/29 14:09:34;;;;;;;30.20;20.30;;;;;;;;;;5056670;28;20078;-79
2023/06/29 14:12:04;;;;;;;29.65;23.65;;;;;;;;;;5074277;28;20032;-77
2023/06/29 14:14:37;;;;;;;29.35;20.23;;;;;;;;;;5074048;28;20048;-79
2023/06/29 14:17:04;;;;;;;29.17;20.42;;;;;;;;;;5067443;28;20033;-79